Time;durP1;ratioP1;P1;durP2;ratioP2;P2;SDS_P1;SDS_P2;PMS_P1;PMS_P2;Temp;Humidity;BMP_temperature;BMP_pressure;BME280_temperature;BME280_humidity;BME280_pressure;Samples;Min_cycle;Max_cycle;Signal;HPM_P1;HPM_P2
2021/06/15 00:00:58;;;;;;;5.22;2.08;;;25.40;44.90;;;;;;5054918;28;20025;-68
2021/06/15 00:03:24;;;;;;;3.10;1.65;;;25.30;44.90;;;;;;5054630;28;20435;-68
2021/06/15 00:05:49;;;;;;;3.05;1.85;;;25.30;44.90;;;;;;5054213;28;20025;-67
2021/06/15 00:08:15;;;;;;;4.10;1.88;;;25.30;44.90;;;;;;5054385;28;20020;-68
2021/06/15 00:10:44;;;;;;;3.97;1.90;;;25.30;45.00;;;;;;5054353;28;20042;-68
2021/06/15 00:13:10;;;;;;;3.05;1.60;;;25.30;45.00;;;;;;5053015;28;20108;-68
2021/06/15 00:15:37;;;;;;;5.88;1.95;;;25.20;45.00;;;;;;5054373;28;20075;-68
2021/06/15 00:18:03;;;;;;;3.88;2.13;;;25.30;45.00;;;;;;5054520;28;20025;-68
2021/06/15 00:20:29;;;;;;;5.78;2.13;;;25.20;45.00;;;;;;5054456;28;20055;-68
2021/06/15 00:22:55;;;;;;;4.25;1.77;;;25.20;45.00;;;;;;5060941;28;20029;-68
2021/06/15 00:25:21;;;;;;;3.90;1.80;;;25.20;45.00;;;;;;5065609;28;20032;-69
2021/06/15 00:27:48;;;;;;;4.82;2.15;;;25.20;45.00;;;;;;5064533;28;20025;-68
2021/06/15 00:30:15;;;;;;;3.78;1.80;;;25.20;45.10;;;;;;5064510;28;20039;-68
2021/06/15 00:32:41;;;;;;;4.30;1.77;;;25.20;45.00;;;;;;5064816;28;20079;-68
2021/06/15 00:35:07;;;;;;;3.75;2.10;;;25.20;45.00;;;;;;5067317;28;20029;-68
2021/06/15 00:37:32;;;;;;;4.32;1.90;;;25.20;45.10;;;;;;5064224;28;20021;-68
2021/06/15 00:39:58;;;;;;;2.78;1.60;;;25.10;45.10;;;;;;5064331;28;20033;-68
2021/06/15 00:42:23;;;;;;;2.85;1.52;;;25.10;45.10;;;;;;5064133;28;20029;-68
2021/06/15 00:44:49;;;;;;;4.78;2.05;;;25.10;45.10;;;;;;5053511;28;20045;-68
2021/06/15 00:47:15;;;;;;;4.78;2.05;;;25.10;45.10;;;;;;5053550;28;20020;-68
2021/06/15 00:49:42;;;;;;;4.35;1.80;;;25.10;45.10;;;;;;5053494;28;20045;-68
2021/06/15 00:52:09;;;;;;;4.60;2.38;;;25.10;45.20;;;;;;5053405;28;20020;-68
2021/06/15 00:54:35;;;;;;;3.67;1.88;;;25.10;45.20;;;;;;5053622;28;20090;-68
2021/06/15 00:57:01;;;;;;;5.03;2.33;;;25.10;45.20;;;;;;5053512;28;20021;-68
2021/06/15 00:59:27;;;;;;;3.75;2.05;;;25.10;45.20;;;;;;5053518;28;20522;-68
2021/06/15 01:01:53;;;;;;;4.72;2.05;;;25.00;45.20;;;;;;5053063;28;20033;-68
2021/06/15 01:04:19;;;;;;;5.38;2.00;;;25.00;45.30;;;;;;5053399;28;20110;-68
2021/06/15 01:07:08;;;;;;;4.40;1.98;;;25.00;45.30;;;;;;5053632;28;20396;-67
2021/06/15 01:10:16;;;;;;;4.45;2.00;;;25.00;45.30;;;;;;5053306;28;20025;-67
2021/06/15 01:12:54;;;;;;;4.07;1.98;;;25.00;45.30;;;;;;5053454;28;20345;-67
2021/06/15 01:15:29;;;;;;;4.82;1.90;;;25.00;45.30;;;;;;5053419;28;20028;-68
2021/06/15 01:17:58;;;;;;;6.25;1.92;;;25.00;45.40;;;;;;5052990;28;20045;-68
2021/06/15 01:20:26;;;;;;;4.78;2.10;;;25.00;45.40;;;;;;5053410;28;20029;-68
2021/06/15 01:23:03;;;;;;;4.65;2.00;;;25.00;45.40;;;;;;5053083;28;20033;-67
2021/06/15 01:26:02;;;;;;;3.58;1.90;;;25.00;45.50;;;;;;5053465;28;20021;-68
2021/06/15 01:28:41;;;;;;;4.30;1.98;;;24.90;45.50;;;;;;5053458;28;20048;-68
2021/06/15 01:31:24;;;;;;;3.90;2.15;;;24.90;45.50;;;;;;5053841;28;20036;-67
2021/06/15 01:33:55;;;;;;;3.47;2.00;;;24.90;45.50;;;;;;5053708;28;20021;-68
2021/06/15 01:36:27;;;;;;;4.57;2.00;;;24.90;45.50;;;;;;5053459;28;20021;-68
2021/06/15 01:38:57;;;;;;;5.13;2.35;;;24.90;45.60;;;;;;5053683;28;20090;-70
2021/06/15 01:41:39;;;;;;;4.25;1.90;;;24.90;45.60;;;;;;5053140;28;20552;-68
2021/06/15 01:44:07;;;;;;;4.25;1.92;;;24.90;45.60;;;;;;5052817;28;20041;-68
2021/06/15 01:46:38;;;;;;;4.18;2.00;;;24.90;45.60;;;;;;5053060;28;20061;-68
2021/06/15 01:49:10;;;;;;;4.70;2.50;;;24.80;45.60;;;;;;5052757;28;20441;-69
2021/06/15 01:51:37;;;;;;;4.45;2.17;;;24.80;45.70;;;;;;5052887;28;20033;-68
2021/06/15 01:54:09;;;;;;;5.10;2.30;;;24.80;45.60;;;;;;5052872;28;20100;-67
2021/06/15 01:56:39;;;;;;;3.97;2.10;;;24.80;45.70;;;;;;5053004;28;20053;-68
2021/06/15 01:59:07;;;;;;;4.30;1.95;;;24.80;45.70;;;;;;5052989;28;20025;-67
2021/06/15 02:01:35;;;;;;;4.70;2.10;;;24.80;45.80;;;;;;5052767;28;20032;-68
2021/06/15 02:04:02;;;;;;;4.68;2.00;;;24.70;45.80;;;;;;5052507;28;20025;-68
2021/06/15 02:06:29;;;;;;;4.30;1.88;;;24.70;45.80;;;;;;5052675;28;20036;-68
2021/06/15 02:08:57;;;;;;;5.28;2.22;;;24.70;45.90;;;;;;5051469;28;20502;-68
2021/06/15 02:11:26;;;;;;;5.35;2.35;;;24.70;45.90;;;;;;5052778;28;20389;-68
2021/06/15 02:13:51;;;;;;;5.03;2.15;;;24.70;46.00;;;;;;5053896;28;20469;-68
2021/06/15 02:16:18;;;;;;;4.50;2.15;;;24.70;46.00;;;;;;5056692;28;20040;-68
2021/06/15 02:18:54;;;;;;;6.55;2.33;;;24.70;46.00;;;;;;5058924;28;20427;-68
2021/06/15 02:21:21;;;;;;;4.25;2.25;;;24.70;46.10;;;;;;5068634;28;20025;-68
2021/06/15 02:23:49;;;;;;;5.53;2.58;;;24.60;46.20;;;;;;5057866;28;20440;-68
2021/06/15 02:26:17;;;;;;;4.85;2.33;;;24.60;46.20;;;;;;5057206;28;20021;-68
2021/06/15 02:28:43;;;;;;;4.93;2.15;;;24.60;46.30;;;;;;5058428;28;20021;-68
2021/06/15 02:31:15;;;;;;;4.50;2.22;;;24.60;46.30;;;;;;5056491;28;20037;-69
2021/06/15 02:33:50;;;;;;;3.50;1.92;;;24.60;46.30;;;;;;5056222;28;20024;-68
2021/06/15 02:36:19;;;;;;;5.10;2.33;;;24.60;46.30;;;;;;5056214;28;20032;-68
2021/06/15 02:39:31;;;;;;;4.53;2.25;;;24.50;46.50;;;;;;5056384;28;20021;-68
2021/06/15 02:41:57;;;;;;;5.82;2.53;;;24.50;46.50;;;;;;5053180;28;20033;-68
2021/06/15 02:44:27;;;;;;;5.78;2.30;;;24.50;46.60;;;;;;5056210;28;20132;-68
2021/06/15 02:46:56;;;;;;;4.88;2.08;;;24.50;46.60;;;;;;5062388;28;20029;-68
2021/06/15 02:49:25;;;;;;;4.97;2.60;;;24.50;46.70;;;;;;5064949;28;20025;-69
2021/06/15 02:52:05;;;;;;;4.70;2.05;;;24.40;46.70;;;;;;5065957;28;20060;-69
2021/06/15 02:54:36;;;;;;;4.28;2.05;;;24.40;46.80;;;;;;5063218;28;20075;-69
2021/06/15 02:57:03;;;;;;;4.10;2.38;;;24.40;46.90;;;;;;5062037;28;20036;-67
2021/06/15 02:59:29;;;;;;;4.95;2.53;;;24.40;47.00;;;;;;5064554;28;20025;-68
2021/06/15 03:01:54;;;;;;;4.80;2.13;;;24.40;47.00;;;;;;5064749;28;20024;-68
2021/06/15 03:04:20;;;;;;;5.63;2.20;;;24.40;47.00;;;;;;5064766;28;20108;-68
2021/06/15 03:06:47;;;;;;;3.90;2.15;;;24.40;46.90;;;;;;5064750;28;20025;-68
2021/06/15 03:09:14;;;;;;;5.10;2.63;;;24.40;47.00;;;;;;5065136;28;20029;-68
2021/06/15 03:11:51;;;;;;;4.38;2.08;;;24.30;47.00;;;;;;5065960;28;20025;-67
2021/06/15 03:14:25;;;;;;;4.88;2.10;;;24.40;47.10;;;;;;5056117;28;20025;-68
2021/06/15 03:16:53;;;;;;;;;;;24.30;47.00;;;;;;5056658;28;20082;-68
2021/06/15 03:19:18;;;;;;;4.70;2.33;;;24.30;47.10;;;;;;5055755;28;19911;-68
2021/06/15 03:21:49;;;;;;;4.07;2.22;;;24.30;47.10;;;;;;5055409;28;20032;-68
2021/06/15 03:24:22;;;;;;;4.07;2.03;;;24.30;47.20;;;;;;5057240;28;20036;-67
2021/06/15 03:27:01;;;;;;;5.30;2.25;;;24.30;47.20;;;;;;5056138;28;20123;-68
2021/06/15 03:29:30;;;;;;;4.22;2.20;;;24.20;47.20;;;;;;5056821;28;20075;-68
2021/06/15 03:32:00;;;;;;;4.88;2.30;;;24.20;47.20;;;;;;5056912;28;20086;-67
2021/06/15 03:34:30;;;;;;;4.75;2.10;;;24.20;47.20;;;;;;5057383;28;20059;-68
2021/06/15 03:36:57;;;;;;;4.93;2.38;;;24.20;47.30;;;;;;5057240;28;20396;-68
2021/06/15 03:39:24;;;;;;;6.15;2.20;;;24.20;47.20;;;;;;5056150;28;20067;-68
2021/06/15 03:41:58;;;;;;;6.35;2.47;;;24.20;47.30;;;;;;5054576;28;20472;-68
2021/06/15 03:44:24;;;;;;;3.75;2.05;;;24.20;47.30;;;;;;5054491;28;20151;-67
2021/06/15 03:46:52;;;;;;;4.07;2.00;;;24.20;47.30;;;;;;5054635;28;20103;-68
2021/06/15 03:49:21;;;;;;;4.35;1.88;;;24.20;47.30;;;;;;5054394;28;20056;-68
2021/06/15 03:51:52;;;;;;;4.68;2.17;;;24.20;47.20;;;;;;5054318;28;20503;-68
2021/06/15 03:54:20;;;;;;;6.15;2.60;;;24.20;47.50;;;;;;5054546;28;20025;-68
2021/06/15 03:56:49;;;;;;;4.18;2.10;;;24.10;47.40;;;;;;5054174;28;20036;-68
2021/06/15 03:59:23;;;;;;;3.65;2.00;;;24.10;47.40;;;;;;5054144;28;20037;-68
2021/06/15 04:01:52;;;;;;;5.03;2.38;;;24.20;47.30;;;;;;5054155;28;20025;-68
2021/06/15 04:04:19;;;;;;;5.93;2.30;;;24.20;47.30;;;;;;5053982;28;20025;-68
2021/06/15 04:06:50;;;;;;;4.57;2.22;;;24.20;47.40;;;;;;5054254;28;20033;-68
2021/06/15 04:09:21;;;;;;;4.03;2.25;;;24.10;47.50;;;;;;5053992;28;20019;-68
2021/06/15 04:11:47;;;;;;;5.50;2.30;;;24.10;47.50;;;;;;5054173;28;20104;-68
2021/06/15 04:14:15;;;;;;;4.70;2.20;;;24.10;47.50;;;;;;5054255;28;20091;-68
2021/06/15 04:16:43;;;;;;;4.40;1.98;;;24.10;47.50;;;;;;5054119;28;20036;-68
2021/06/15 04:19:14;;;;;;;4.00;2.05;;;24.10;47.40;;;;;;5053817;28;20021;-68
2021/06/15 04:21:45;;;;;;;5.22;2.53;;;24.10;47.50;;;;;;5053775;28;20448;-68
2021/06/15 04:24:14;;;;;;;6.07;2.78;;;24.10;47.40;;;;;;5053771;28;20433;-68
2021/06/15 04:26:40;;;;;;;4.93;2.13;;;24.10;47.50;;;;;;5053754;28;20070;-68
2021/06/15 04:29:06;;;;;;;5.30;2.10;;;24.10;47.50;;;;;;5053874;28;20057;-68
2021/06/15 04:31:34;;;;;;;4.47;2.30;;;24.10;47.50;;;;;;5053799;28;20048;-68
2021/06/15 04:34:01;;;;;;;4.28;2.20;;;24.10;47.50;;;;;;5053673;28;20029;-69
2021/06/15 04:36:31;;;;;;;3.72;2.13;;;24.10;47.50;;;;;;5053125;28;20029;-68
2021/06/15 04:39:03;;;;;;;4.40;2.35;;;24.00;47.50;;;;;;5053457;28;20100;-68
2021/06/15 04:41:41;;;;;;;4.60;2.13;;;24.00;47.60;;;;;;5053356;28;20021;-68
2021/06/15 04:44:15;;;;;;;3.53;2.08;;;24.00;47.50;;;;;;5053293;28;20053;-68
2021/06/15 04:46:46;;;;;;;3.58;2.05;;;24.00;47.50;;;;;;5053501;28;20443;-68
2021/06/15 04:49:22;;;;;;;4.95;2.05;;;24.00;47.50;;;;;;5051978;28;20029;-68
2021/06/15 04:51:53;;;;;;;4.50;2.22;;;24.00;47.50;;;;;;5053452;28;20037;-67
2021/06/15 04:54:21;;;;;;;3.78;2.08;;;24.00;47.60;;;;;;5053192;28;20021;-67
2021/06/15 04:56:49;;;;;;;4.47;2.38;;;24.00;47.60;;;;;;5051810;28;20081;-67
2021/06/15 04:59:19;;;;;;;4.32;2.17;;;24.00;47.60;;;;;;5053094;28;20054;-68
2021/06/15 05:01:45;;;;;;;4.45;2.05;;;24.00;47.50;;;;;;5053280;28;20035;-67
2021/06/15 05:04:12;;;;;;;4.25;2.20;;;24.00;47.50;;;;;;5051625;28;20017;-67
2021/06/15 05:06:41;;;;;;;5.60;2.47;;;24.00;47.50;;;;;;5053140;28;20025;-67
2021/06/15 05:09:08;;;;;;;4.68;2.00;;;24.00;47.50;;;;;;5053074;28;20021;-67
2021/06/15 05:11:37;;;;;;;4.72;2.00;;;24.00;47.50;;;;;;5052769;28;20051;-68
2021/06/15 05:14:06;;;;;;;5.15;2.25;;;24.00;47.50;;;;;;5052809;28;20020;-67
2021/06/15 05:16:34;;;;;;;6.05;2.40;;;24.00;47.40;;;;;;5053130;28;20028;-68
2021/06/15 05:19:00;;;;;;;3.95;2.00;;;24.00;47.40;;;;;;5060413;28;20056;-68
2021/06/15 05:21:33;;;;;;;4.72;2.45;;;24.00;47.40;;;;;;5061571;28;20025;-68
2021/06/15 05:24:02;;;;;;;3.88;2.13;;;24.00;47.40;;;;;;5059142;28;20029;-68
2021/06/15 05:26:29;;;;;;;4.95;2.20;;;24.00;47.40;;;;;;5054763;28;20048;-68
2021/06/15 05:28:55;;;;;;;6.25;2.25;;;24.00;47.40;;;;;;5053771;28;20393;-68
2021/06/15 05:31:20;;;;;;;4.20;2.08;;;24.00;47.40;;;;;;5052833;28;20032;-68
2021/06/15 05:33:46;;;;;;;4.40;2.10;;;24.00;47.40;;;;;;5052758;28;20384;-68
2021/06/15 05:36:11;;;;;;;4.80;2.30;;;24.00;47.30;;;;;;5052784;28;20423;-68
2021/06/15 05:38:37;;;;;;;3.42;1.95;;;24.00;47.30;;;;;;5052692;28;20031;-68
2021/06/15 05:41:03;;;;;;;4.55;2.10;;;24.00;47.30;;;;;;5052671;28;20431;-68
2021/06/15 05:43:28;;;;;;;3.33;1.88;;;24.00;47.30;;;;;;5052313;28;20073;-68
2021/06/15 05:45:54;;;;;;;4.13;2.25;;;24.00;47.30;;;;;;5052468;28;20057;-67
2021/06/15 05:48:20;;;;;;;4.22;2.30;;;24.00;47.20;;;;;;5052914;28;20028;-68
2021/06/15 05:50:48;;;;;;;3.92;1.88;;;24.00;47.10;;;;;;5056277;28;20048;-68
2021/06/15 05:53:14;;;;;;;5.20;2.50;;;24.00;47.20;;;;;;5056719;28;20523;-68
2021/06/15 05:55:40;;;;;;;4.57;2.08;;;24.00;47.30;;;;;;5056383;28;20033;-67
2021/06/15 05:58:05;;;;;;;4.68;2.28;;;24.00;47.20;;;;;;5056256;28;20377;-68
2021/06/15 06:00:31;;;;;;;3.50;2.00;;;24.10;47.20;;;;;;5056658;28;20033;-68
2021/06/15 06:02:56;;;;;;;4.18;2.17;;;24.10;47.10;;;;;;5056242;28;20025;-68
2021/06/15 06:08:09;;;;;;;5.72;2.50;;;24.00;47.20;;;;;;5056207;28;20067;-69
2021/06/15 06:10:36;;;;;;;4.85;2.45;;;24.10;47.10;;;;;;5056046;28;20500;-68
2021/06/15 06:13:02;;;;;;;3.90;1.90;;;24.10;47.20;;;;;;5055877;28;20017;-68
2021/06/15 06:15:28;;;;;;;4.00;2.00;;;24.10;47.10;;;;;;5055873;28;20482;-68
2021/06/15 06:17:58;;;;;;;5.88;2.30;;;24.10;47.00;;;;;;5055842;28;20040;-68
2021/06/15 06:20:24;;;;;;;4.70;1.95;;;24.10;47.00;;;;;;5056355;28;20044;-68
2021/06/15 06:22:49;;;;;;;4.25;2.22;;;24.10;46.90;;;;;;5055708;28;20020;-68
2021/06/15 06:25:17;;;;;;;4.05;1.92;;;24.10;46.80;;;;;;5055979;28;20028;-68
2021/06/15 06:27:42;;;;;;;3.78;1.95;;;24.20;46.90;;;;;;5055793;28;20031;-68
2021/06/15 06:30:09;;;;;;;4.45;2.28;;;24.20;46.90;;;;;;5055644;28;20025;-69
2021/06/15 06:32:35;;;;;;;3.25;1.90;;;24.20;46.90;;;;;;5055861;28;20025;-69
2021/06/15 06:35:03;;;;;;;4.55;2.10;;;24.20;46.90;;;;;;5056150;28;20021;-69
2021/06/15 06:37:29;;;;;;;4.63;2.08;;;24.20;46.90;;;;;;5058076;28;20021;-68
2021/06/15 06:39:54;;;;;;;4.28;2.20;;;24.20;47.00;;;;;;5054231;28;20079;-70
2021/06/15 06:42:20;;;;;;;4.18;2.15;;;24.20;47.00;;;;;;5055516;28;20064;-68
2021/06/15 06:44:46;;;;;;;3.95;2.13;;;24.20;46.90;;;;;;5055269;28;20041;-68
2021/06/15 06:47:12;;;;;;;6.43;1.85;;;24.20;46.90;;;;;;5055479;28;20043;-69
2021/06/15 06:49:38;;;;;;;3.53;2.08;;;24.20;46.90;;;;;;5055435;28;20461;-69
2021/06/15 06:52:03;;;;;;;3.40;1.90;;;24.20;46.90;;;;;;5055037;28;20033;-69
2021/06/15 06:54:29;;;;;;;6.00;2.40;;;24.20;47.00;;;;;;5055382;28;20021;-68
2021/06/15 06:56:55;;;;;;;4.75;2.13;;;24.30;46.90;;;;;;5055346;28;20029;-70
2021/06/15 06:59:21;;;;;;;2.72;1.90;;;24.20;47.00;;;;;;5054952;28;20021;-68
2021/06/15 07:01:46;;;;;;;4.75;2.25;;;24.20;46.90;;;;;;5055216;28;20027;-69
2021/06/15 07:04:13;;;;;;;3.80;2.22;;;24.30;47.00;;;;;;5055235;28;20056;-68
2021/06/15 07:06:39;;;;;;;4.68;2.25;;;24.30;46.90;;;;;;5053258;28;20029;-68
2021/06/15 07:09:04;;;;;;;2.95;1.80;;;24.20;46.90;;;;;;5055149;28;20094;-69
2021/06/15 07:11:30;;;;;;;4.45;2.20;;;24.30;46.90;;;;;;5055140;28;20044;-69
2021/06/15 07:13:55;;;;;;;3.53;1.95;;;24.30;46.90;;;;;;5055136;28;20048;-68
2021/06/15 07:16:21;;;;;;;5.57;2.00;;;24.30;46.80;;;;;;5055099;28;20460;-68
2021/06/15 07:18:47;;;;;;;4.40;1.85;;;24.30;46.80;;;;;;5054729;28;20084;-68
2021/06/15 07:21:12;;;;;;;4.90;2.30;;;24.30;46.80;;;;;;5054686;28;20465;-68
2021/06/15 07:23:39;;;;;;;4.65;2.03;;;24.30;46.80;;;;;;5054505;28;20046;-69
2021/06/15 07:26:04;;;;;;;5.47;2.40;;;24.40;46.80;;;;;;5053538;28;20102;-68
2021/06/15 07:28:30;;;;;;;3.47;1.70;;;24.30;46.70;;;;;;5054367;28;20091;-69
2021/06/15 07:30:56;;;;;;;4.43;1.90;;;24.40;46.80;;;;;;5054366;28;20045;-69
2021/06/15 07:33:21;;;;;;;3.67;1.70;;;24.30;46.90;;;;;;5054241;28;20461;-68
2021/06/15 07:35:47;;;;;;;3.25;1.73;;;24.30;46.90;;;;;;5054323;28;20032;-69
2021/06/15 07:38:12;;;;;;;5.45;2.08;;;24.30;47.00;;;;;;5054319;28;20086;-68
2021/06/15 07:40:38;;;;;;;3.60;2.10;;;24.20;47.00;;;;;;5052201;28;20518;-67
2021/06/15 07:43:03;;;;;;;4.72;2.10;;;24.20;47.10;;;;;;5053120;28;20031;-69
2021/06/15 07:45:32;;;;;;;3.05;1.67;;;24.20;47.10;;;;;;5051918;28;20052;-70
2021/06/15 07:47:58;;;;;;;3.45;1.73;;;24.20;47.10;;;;;;5053773;28;20384;-70
2021/06/15 07:50:24;;;;;;;4.25;2.10;;;24.20;47.10;;;;;;5052415;28;20044;-71
2021/06/15 07:52:50;;;;;;;4.95;1.70;;;24.20;47.10;;;;;;5053089;28;20025;-70
2021/06/15 07:55:17;;;;;;;4.60;2.15;;;24.30;47.10;;;;;;5051670;28;20421;-69
2021/06/15 07:57:43;;;;;;;3.67;1.90;;;24.30;47.10;;;;;;5053553;28;20025;-71
2021/06/15 08:00:10;;;;;;;5.25;2.10;;;24.20;47.10;;;;;;5053529;28;20075;-68
2021/06/15 08:02:36;;;;;;;8.32;3.22;;;24.30;47.10;;;;;;5053025;28;20028;-69
2021/06/15 08:05:02;;;;;;;6.05;2.70;;;24.20;48.60;;;;;;5053184;28;20425;-68
2021/06/15 08:07:28;;;;;;;5.15;2.55;;;24.10;49.30;;;;;;5053189;28;20468;-68
2021/06/15 08:09:54;;;;;;;6.07;2.63;;;24.10;49.20;;;;;;5053468;28;20039;-67
2021/06/15 08:12:20;;;;;;;6.45;2.78;;;24.00;49.20;;;;;;5052179;28;20465;-68
2021/06/15 08:14:47;;;;;;;8.75;2.85;;;24.00;49.40;;;;;;5053216;28;20083;-69
2021/06/15 08:17:13;;;;;;;8.25;3.00;;;24.00;49.50;;;;;;5053164;28;20029;-68
2021/06/15 08:19:38;;;;;;;7.05;2.80;;;24.10;49.70;;;;;;5053049;28;20465;-69
2021/06/15 08:22:04;;;;;;;7.65;2.40;;;24.10;49.90;;;;;;5052695;28;20032;-70
2021/06/15 08:24:30;;;;;;;6.28;2.72;;;24.00;50.10;;;;;;5054572;28;20025;-68
2021/06/15 08:26:55;;;;;;;8.52;3.00;;;24.00;49.90;;;;;;5066352;28;20036;-69
2021/06/15 08:29:21;;;;;;;5.60;2.63;;;24.00;49.90;;;;;;5064235;28;20021;-69
2021/06/15 08:31:46;;;;;;;5.13;2.60;;;24.00;50.20;;;;;;5065117;28;20507;-69
2021/06/15 08:34:12;;;;;;;8.48;2.78;;;23.90;50.10;;;;;;5066446;28;20025;-67
2021/06/15 08:36:38;;;;;;;8.02;2.95;;;24.00;50.10;;;;;;5063358;28;20027;-67
2021/06/15 08:39:05;;;;;;;9.75;2.97;;;24.00;50.30;;;;;;5063801;28;20035;-70
2021/06/15 08:41:31;;;;;;;6.32;2.92;;;24.00;50.50;;;;;;5063288;28;20029;-68
2021/06/15 08:43:57;;;;;;;6.72;2.95;;;24.00;50.30;;;;;;5059484;28;20102;-69
2021/06/15 08:46:23;;;;;;;6.70;2.55;;;23.90;50.40;;;;;;5053471;28;20490;-69
2021/06/15 08:48:49;;;;;;;5.40;2.60;;;23.90;50.40;;;;;;5053502;28;20024;-70
2021/06/15 08:51:15;;;;;;;4.22;2.33;;;24.00;50.30;;;;;;5052923;28;20400;-68
2021/06/15 08:53:41;;;;;;;6.25;2.75;;;24.00;50.20;;;;;;5053432;28;20024;-70
2021/06/15 08:56:18;;;;;;;6.50;2.47;;;24.00;50.50;;;;;;5057659;28;20033;-71
2021/06/15 08:58:54;;;;;;;7.72;2.75;;;24.00;50.40;;;;;;5057158;28;20025;-69
2021/06/15 09:01:20;;;;;;;4.75;2.20;;;24.00;50.20;;;;;;5053242;28;20423;-69
2021/06/15 09:03:50;;;;;;;6.53;2.70;;;24.00;50.20;;;;;;5053076;28;20036;-69
2021/06/15 09:06:16;;;;;;;7.55;2.40;;;24.10;50.30;;;;;;5053435;28;20032;-69
2021/06/15 09:08:56;;;;;;;7.00;2.53;;;24.00;50.20;;;;;;5053352;28;20021;-69
2021/06/15 09:11:22;;;;;;;5.28;2.15;;;24.10;50.00;;;;;;5052783;28;20039;-69
2021/06/15 09:13:48;;;;;;;5.63;2.30;;;24.10;49.90;;;;;;5052791;28;20029;-70
2021/06/15 09:16:28;;;;;;;6.60;2.50;;;24.10;50.00;;;;;;5052914;28;20032;-70
2021/06/15 09:18:57;;;;;;;6.15;2.30;;;24.20;49.90;;;;;;5052593;28;20096;-70
2021/06/15 09:21:38;;;;;;;6.72;2.20;;;24.20;49.90;;;;;;5052572;28;20021;-71
2021/06/15 09:24:10;;;;;;;7.15;2.50;;;24.10;50.10;;;;;;5056133;28;20087;-67
2021/06/15 09:26:57;;;;;;;5.28;2.50;;;24.10;49.90;;;;;;5056843;28;20122;-69
2021/06/15 09:29:38;;;;;;;4.68;2.10;;;24.20;50.00;;;;;;5056595;28;20108;-68
2021/06/15 09:32:06;;;;;;;5.13;2.33;;;24.10;49.90;;;;;;5056397;28;20025;-70
2021/06/15 09:34:32;;;;;;;4.78;1.95;;;24.20;49.90;;;;;;5056552;28;20029;-70
2021/06/15 09:36:58;;;;;;;5.10;2.10;;;24.10;49.60;;;;;;5056812;28;20086;-70
2021/06/15 09:39:25;;;;;;;5.85;2.13;;;24.20;49.40;;;;;;5056651;28;20029;-69
2021/06/15 09:41:50;;;;;;;8.45;2.30;;;24.20;49.50;;;;;;5056302;28;20488;-68
2021/06/15 09:44:20;;;;;;;5.80;2.50;;;24.20;49.60;;;;;;5056477;28;20085;-68
2021/06/15 09:46:51;;;;;;;5.97;2.42;;;24.10;49.80;;;;;;5056221;28;20108;-69
2021/06/15 09:49:37;;;;;;;6.82;2.58;;;24.10;49.60;;;;;;5056128;28;20017;-68
2021/06/15 09:52:24;;;;;;;6.05;2.28;;;24.10;49.60;;;;;;5056065;28;20044;-71
2021/06/15 09:54:54;;;;;;;3.58;1.77;;;24.20;49.70;;;;;;5056492;28;20017;-70
2021/06/15 09:57:22;;;;;;;4.38;2.05;;;24.20;49.50;;;;;;5056219;28;20095;-68
2021/06/15 10:00:10;;;;;;;4.70;2.20;;;24.20;49.50;;;;;;5056549;28;20028;-69
2021/06/15 10:02:50;;;;;;;4.80;2.20;;;24.20;49.30;;;;;;5055839;28;20013;-69
2021/06/15 10:05:25;;;;;;;7.05;2.30;;;24.20;49.20;;;;;;5056094;28;20106;-67
2021/06/15 10:07:52;;;;;;;4.80;2.00;;;24.20;49.10;;;;;;5055939;28;20013;-67
2021/06/15 10:10:19;;;;;;;4.45;1.77;;;24.20;49.00;;;;;;5055799;28;20384;-68
2021/06/15 10:12:46;;;;;;;4.60;1.88;;;24.20;49.10;;;;;;5055305;28;20350;-68
2021/06/15 10:15:12;;;;;;;5.97;1.70;;;24.30;49.00;;;;;;5055757;28;20468;-71
2021/06/15 10:17:38;;;;;;;5.43;2.45;;;24.20;49.00;;;;;;5055704;28;20352;-70
2021/06/15 10:20:04;;;;;;;6.57;2.10;;;24.30;48.60;;;;;;5055953;28;20032;-70
2021/06/15 10:22:31;;;;;;;5.60;1.92;;;24.20;48.50;;;;;;5055421;28;20028;-70
2021/06/15 10:24:56;;;;;;;4.30;1.85;;;24.30;48.20;;;;;;5055668;28;20021;-68
2021/06/15 10:27:22;;;;;;;6.18;2.70;;;24.30;48.30;;;;;;5055630;28;20021;-69
2021/06/15 10:29:52;;;;;;;4.13;1.73;;;24.30;48.20;;;;;;5055632;28;20059;-69
2021/06/15 10:32:21;;;;;;;5.68;2.10;;;24.30;48.30;;;;;;5054762;28;20111;-69
2021/06/15 10:34:59;;;;;;;4.55;1.67;;;24.30;48.40;;;;;;5054676;28;20465;-69
2021/06/15 10:40:01;;;;;;;4.47;1.98;;;24.40;48.10;;;;;;5055642;28;20507;-71
2021/06/15 10:42:27;;;;;;;4.53;1.80;;;24.40;48.20;;;;;;5054991;28;20104;-72
2021/06/15 10:45:16;;;;;;;3.55;1.90;;;24.40;48.10;;;;;;5055111;28;20124;-72
2021/06/15 10:48:04;;;;;;;4.05;1.90;;;24.40;47.80;;;;;;5055248;28;20017;-71
2021/06/15 10:50:51;;;;;;;6.60;2.00;;;24.40;47.60;;;;;;5053734;28;20033;-70
2021/06/15 10:53:20;;;;;;;4.82;1.85;;;24.40;47.10;;;;;;5054436;28;20036;-69
2021/06/15 10:56:00;;;;;;;4.35;1.70;;;24.50;47.30;;;;;;5054920;28;20025;-69
2021/06/15 10:58:43;;;;;;;5.15;1.98;;;24.50;47.40;;;;;;5055399;28;20021;-70
2021/06/15 11:01:26;;;;;;;3.92;1.67;;;24.50;47.20;;;;;;5054954;28;20027;-71
2021/06/15 11:03:55;;;;;;;4.60;1.90;;;24.50;47.20;;;;;;5054784;28;20037;-69
2021/06/15 11:06:52;;;;;;;3.65;1.52;;;24.50;47.00;;;;;;5054930;28;20020;-68
2021/06/15 11:09:22;;;;;;;4.65;1.70;;;24.50;47.10;;;;;;5054627;28;20021;-70
2021/06/15 11:11:50;;;;;;;4.18;1.55;;;24.60;47.00;;;;;;5054690;28;20078;-68
2021/06/15 11:14:19;;;;;;;5.10;1.65;;;24.60;47.00;;;;;;5054814;28;20044;-68
2021/06/15 11:16:49;;;;;;;3.22;1.67;;;24.70;46.50;;;;;;5056668;28;20021;-70
2021/06/15 11:19:17;;;;;;;2.97;1.40;;;24.60;46.80;;;;;;5061513;28;20021;-70
2021/06/15 11:21:57;;;;;;;3.53;1.63;;;24.60;46.80;;;;;;5057346;28;20017;-69
2021/06/15 11:24:46;;;;;;;3.95;1.48;;;24.70;46.90;;;;;;5054739;28;20029;-70
2021/06/15 11:27:20;;;;;;;2.92;1.30;;;24.60;46.80;;;;;;5054170;28;20108;-68
2021/06/15 11:29:50;;;;;;;4.40;1.50;;;24.70;46.60;;;;;;5054047;28;20029;-68
2021/06/15 11:32:26;;;;;;;4.97;1.48;;;24.70;46.50;;;;;;5053845;28;20025;-68
2021/06/15 11:37:22;;;;;;;4.05;1.45;;;24.70;46.70;;;;;;5054245;28;20035;-68
2021/06/15 11:39:48;;;;;;;3.33;1.48;;;24.80;46.50;;;;;;5053534;28;20422;-69
2021/06/15 11:42:28;;;;;;;4.68;1.50;;;24.80;46.50;;;;;;5053445;28;20079;-69
2021/06/15 11:45:01;;;;;;;4.05;1.55;;;24.80;46.40;;;;;;5053576;28;20574;-69
2021/06/15 11:47:35;;;;;;;6.03;1.63;;;24.90;46.20;;;;;;5053113;28;20047;-69
2021/06/15 11:50:10;;;;;;;4.85;1.55;;;24.90;46.30;;;;;;5053696;28;20033;-69
2021/06/15 11:52:38;;;;;;;2.67;1.33;;;24.90;46.30;;;;;;5053383;28;20083;-69
2021/06/15 11:55:06;;;;;;;3.97;1.48;;;25.00;45.70;;;;;;5053916;28;20029;-69
2021/06/15 11:57:31;;;;;;;3.80;1.33;;;24.90;46.00;;;;;;5054015;28;20017;-71
2021/06/15 11:59:57;;;;;;;3.28;1.42;;;25.00;45.80;;;;;;5054230;28;20024;-72
2021/06/15 12:02:23;;;;;;;3.05;1.30;;;25.00;45.60;;;;;;5050659;28;20055;-71
2021/06/15 12:05:16;;;;;;;4.63;1.20;;;25.10;45.70;;;;;;5051719;28;20021;-71
2021/06/15 12:07:51;;;;;;;3.08;1.42;;;25.00;45.70;;;;;;5051752;28;20027;-72
2021/06/15 12:10:17;;;;;;;4.20;1.48;;;25.10;45.60;;;;;;5051772;28;20036;-71
2021/06/15 12:12:57;;;;;;;3.78;1.85;;;25.10;45.60;;;;;;5051576;28;20021;-72
2021/06/15 12:15:41;;;;;;;4.00;1.60;;;25.20;45.60;;;;;;5050406;28;20078;-71
2021/06/15 12:18:09;;;;;;;2.67;1.00;;;25.20;45.60;;;;;;5053686;28;20100;-71
2021/06/15 12:20:39;;;;;;;4.97;1.75;;;25.30;45.50;;;;;;5053510;28;20029;-72
2021/06/15 12:23:27;;;;;;;3.00;1.42;;;25.30;45.50;;;;;;5053212;28;20169;-72
2021/06/15 12:25:55;;;;;;;2.08;1.23;;;25.30;45.50;;;;;;5053573;28;20025;-71
2021/06/15 12:28:23;;;;;;;3.25;1.45;;;25.40;45.40;;;;;;5053442;28;20017;-72
2021/06/15 12:31:16;;;;;;;4.20;1.65;;;25.40;45.30;;;;;;5056117;28;20058;-71
2021/06/15 12:33:44;;;;;;;3.17;1.20;;;25.40;45.30;;;;;;5051645;28;20024;-71
2021/06/15 12:36:12;;;;;;;3.95;1.48;;;25.50;45.30;;;;;;5053360;28;20497;-71
2021/06/15 12:38:39;;;;;;;3.83;1.33;;;25.50;45.30;;;;;;5053549;28;20028;-71
2021/06/15 12:41:11;;;;;;;2.28;1.27;;;25.50;45.10;;;;;;5053412;28;20183;-71
2021/06/15 12:43:38;;;;;;;4.07;1.20;;;25.50;45.10;;;;;;5053095;28;20039;-71
2021/06/15 12:46:06;;;;;;;3.95;1.50;;;25.60;45.10;;;;;;5052686;28;20583;-70
2021/06/15 12:48:34;;;;;;;2.85;1.25;;;25.70;45.00;;;;;;5052682;28;20040;-71
2021/06/15 12:51:11;;;;;;;4.13;1.38;;;25.70;45.00;;;;;;5052991;28;20032;-70
2021/06/15 12:53:39;;;;;;;3.30;1.40;;;25.80;44.90;;;;;;5052959;28;20044;-71
2021/06/15 12:56:22;;;;;;;4.07;1.42;;;25.80;44.80;;;;;;5053170;28;20031;-71
2021/06/15 12:58:51;;;;;;;3.17;1.43;;;25.80;44.70;;;;;;5054338;28;20515;-70
2021/06/15 13:01:27;;;;;;;3.22;1.23;;;25.90;44.60;;;;;;5053654;28;20481;-70
2021/06/15 13:03:54;;;;;;;4.05;1.95;;;25.90;44.60;;;;;;5053142;28;20036;-70
2021/06/15 13:06:21;;;;;;;2.40;1.40;;;26.00;44.50;;;;;;5052996;28;20362;-70
2021/06/15 13:08:48;;;;;;;3.92;1.38;;;26.00;44.40;;;;;;5052519;28;20029;-71